createdAt,value
2019-05-06T00:01:34.031Z,6.08
2019-05-06T00:04:04.843Z,5.80
2019-05-06T00:06:34.590Z,5.72
2019-05-06T00:09:04.934Z,6.22
2019-05-06T00:11:34.669Z,6.08
2019-05-06T00:14:03.988Z,6.12
2019-05-06T00:16:34.648Z,6.47
2019-05-06T00:19:04.876Z,6.50
2019-05-06T00:21:35.601Z,5.60
2019-05-06T00:24:04.129Z,5.90
2019-05-06T00:26:55.129Z,6.05
2019-05-06T00:29:27.065Z,6.20
2019-05-06T00:31:55.907Z,5.87
2019-05-06T00:34:24.648Z,6.72
2019-05-06T00:36:54.463Z,6.85
2019-05-06T00:39:24.874Z,6.03
2019-05-06T00:42:01.207Z,6.25
2019-05-06T00:44:30.000Z,6.08
2019-05-06T00:46:58.457Z,5.80
2019-05-06T00:49:28.504Z,5.92
2019-05-06T00:51:57.299Z,6.30
2019-05-06T00:54:27.407Z,5.97
2019-05-06T00:56:56.218Z,7.22
2019-05-06T00:59:24.691Z,6.25
2019-05-06T01:01:53.868Z,6.72
2019-05-06T01:04:24.492Z,6.65
2019-05-06T01:06:54.482Z,6.22
2019-05-06T01:09:23.788Z,5.12
2019-05-06T01:11:54.355Z,6.40
2019-05-06T01:14:24.471Z,6.67
2019-05-06T01:16:54.777Z,7.70
2019-05-06T01:19:24.999Z,6.80
2019-05-06T01:21:53.990Z,6.00
2019-05-06T01:24:43.930Z,6.65
2019-05-06T01:27:14.531Z,6.33
2019-05-06T01:29:44.146Z,6.30
2019-05-06T01:32:13.944Z,6.30
2019-05-06T01:34:44.662Z,6.55
2019-05-06T01:37:14.246Z,6.20
2019-05-06T01:39:54.222Z,5.80
2019-05-06T01:42:42.155Z,5.58
2019-05-06T01:45:11.230Z,5.90
2019-05-06T01:47:40.019Z,5.65
2019-05-06T01:50:08.923Z,5.20
2019-05-06T01:52:37.374Z,4.95
2019-05-06T01:55:07.727Z,4.92
2019-05-06T01:57:36.519Z,5.35
2019-05-06T02:00:07.191Z,5.50
2019-05-06T02:02:35.943Z,5.03
2019-05-06T02:05:05.548Z,5.33
2019-05-06T02:07:34.944Z,5.03
2019-05-06T02:10:05.706Z,5.35
2019-05-06T02:12:34.605Z,5.28
2019-05-06T02:15:04.237Z,5.60
2019-05-06T02:17:34.521Z,5.37
2019-05-06T02:20:04.223Z,5.85
2019-05-06T02:22:34.657Z,5.60
2019-05-06T02:25:05.311Z,5.80
2019-05-06T02:27:34.191Z,5.80
2019-05-06T02:30:07.412Z,4.95
2019-05-06T02:32:40.601Z,5.60
2019-05-06T02:35:17.167Z,5.50
2019-05-06T02:37:46.720Z,6.33
2019-05-06T02:40:24.214Z,6.22
2019-05-06T02:42:54.679Z,5.85
2019-05-06T02:45:23.883Z,5.78
2019-05-06T02:47:56.673Z,7.10
2019-05-06T02:50:27.112Z,6.87
2019-05-06T02:52:55.579Z,7.22
2019-05-06T02:55:24.394Z,6.10
2019-05-06T02:57:53.817Z,5.58
2019-05-06T03:00:23.811Z,5.50
2019-05-06T03:02:54.129Z,6.28
2019-05-06T03:05:23.734Z,6.12
2019-05-06T03:07:57.206Z,6.53
2019-05-06T03:10:24.643Z,6.10
2019-05-06T03:12:53.933Z,6.47
2019-05-06T03:15:24.008Z,6.60
2019-05-06T03:17:55.285Z,6.17
2019-05-06T03:20:37.068Z,5.70
2019-05-06T03:23:07.526Z,4.72
2019-05-06T03:25:36.919Z,4.95
2019-05-06T03:28:05.722Z,5.80
2019-05-06T03:30:36.169Z,4.78
2019-05-06T03:35:50.472Z,5.58
2019-05-06T03:38:06.362Z,5.00
2019-05-06T03:40:37.111Z,5.78
2019-05-06T03:43:05.343Z,6.30
2019-05-06T03:45:38.529Z,6.35
2019-05-06T03:48:08.899Z,7.05
2019-05-06T03:50:37.646Z,7.10
2019-05-06T03:53:08.295Z,7.25
2019-05-06T03:55:38.841Z,7.58
2019-05-06T03:58:09.323Z,6.90
2019-05-06T04:00:38.643Z,6.92
2019-05-06T04:03:07.444Z,6.12
2019-05-06T04:05:36.435Z,6.70
2019-05-06T04:08:04.990Z,5.62
2019-05-06T04:10:36.872Z,6.80
2019-05-06T04:13:05.488Z,7.10
2019-05-06T04:15:36.323Z,8.55
2019-05-06T04:18:06.506Z,7.17
2019-05-06T04:20:37.584Z,6.50
2019-05-06T04:23:08.025Z,6.75
2019-05-06T04:25:54.763Z,7.00
2019-05-06T04:28:39.367Z,5.92
2019-05-06T04:31:08.170Z,7.22
2019-05-06T04:33:36.711Z,7.28
2019-05-06T04:36:05.557Z,8.48
2019-05-06T04:38:34.175Z,9.38
2019-05-06T04:41:03.252Z,8.58
2019-05-06T04:43:33.589Z,7.97
2019-05-06T04:46:03.221Z,6.95
2019-05-06T04:48:32.881Z,6.47
2019-05-06T04:51:03.282Z,8.58
2019-05-06T04:53:33.769Z,8.18
2019-05-06T04:56:03.870Z,8.33
2019-05-06T04:58:33.564Z,6.30
2019-05-06T05:01:04.150Z,7.03
2019-05-06T05:03:33.873Z,6.50
2019-05-06T05:06:05.767Z,6.60
2019-05-06T05:08:36.375Z,5.83
2019-05-06T05:11:08.187Z,5.70
2019-05-06T05:13:54.503Z,5.65
2019-05-06T05:16:24.918Z,5.85
2019-05-06T05:18:55.651Z,5.62
2019-05-06T05:21:24.123Z,6.10
2019-05-06T05:23:53.136Z,6.62
2019-05-06T05:26:22.511Z,5.53
2019-05-06T05:28:53.209Z,6.00
2019-05-06T05:31:23.031Z,5.90
2019-05-06T05:33:52.649Z,6.60
2019-05-06T05:36:23.138Z,6.17
2019-05-06T05:38:52.211Z,6.53
2019-05-06T05:41:23.208Z,6.78
2019-05-06T05:43:59.450Z,6.28
2019-05-06T05:46:28.235Z,4.97
2019-05-06T05:49:12.042Z,4.95
2019-05-06T05:51:42.587Z,5.97
2019-05-06T05:54:12.450Z,6.33
2019-05-06T05:56:43.086Z,5.90
2019-05-06T05:59:12.269Z,5.30
2019-05-06T06:01:43.457Z,5.42
2019-05-06T06:04:13.013Z,6.72
2019-05-06T06:06:42.397Z,5.28
2019-05-06T06:09:12.705Z,5.58
2019-05-06T06:11:44.363Z,4.90
2019-05-06T06:14:33.034Z,4.70
2019-05-06T06:17:19.478Z,5.40
2019-05-06T06:19:55.487Z,5.67
2019-05-06T06:22:26.344Z,4.95
2019-05-06T06:24:54.867Z,5.17
2019-05-06T06:27:23.736Z,5.65
2019-05-06T06:29:52.751Z,5.42
2019-05-06T06:32:23.973Z,5.62
2019-05-06T06:35:13.298Z,5.08
2019-05-06T06:37:43.963Z,5.53
2019-05-06T06:40:14.587Z,4.75
2019-05-06T06:42:43.067Z,4.62
2019-05-06T06:45:12.370Z,4.55
2019-05-06T06:47:42.510Z,6.55
2019-05-06T06:50:12.603Z,6.00
2019-05-06T06:52:42.160Z,6.15
2019-05-06T06:55:12.978Z,5.97
2019-05-06T06:57:51.951Z,5.15
2019-05-06T07:00:22.549Z,5.60
2019-05-06T07:02:53.087Z,4.92
2019-05-06T07:05:29.856Z,5.85
2019-05-06T07:07:59.491Z,5.20
2019-05-06T07:10:43.245Z,5.22
2019-05-06T07:13:14.895Z,5.17
2019-05-06T07:15:44.064Z,5.25
2019-05-06T07:18:13.971Z,4.53
2019-05-06T07:20:44.066Z,4.70
2019-05-06T07:23:29.575Z,4.92
2019-05-06T07:25:58.031Z,4.95
2019-05-06T07:28:27.607Z,5.42
2019-05-06T07:30:56.775Z,6.25
2019-05-06T07:33:25.242Z,6.67
2019-05-06T07:35:54.051Z,5.92
2019-05-06T07:38:23.401Z,8.48
2019-05-06T07:40:54.198Z,6.35
2019-05-06T07:43:34.025Z,5.80
2019-05-06T07:46:12.161Z,6.22
2019-05-06T07:48:42.832Z,5.40
2019-05-06T07:51:12.414Z,6.33
2019-05-06T07:53:42.675Z,5.60
2019-05-06T07:56:12.603Z,5.58
2019-05-06T07:58:43.573Z,5.60
2019-05-06T08:01:13.527Z,6.05
2019-05-06T08:03:42.864Z,5.67
2019-05-06T08:06:13.179Z,5.28
2019-05-06T08:08:43.553Z,5.10
2019-05-06T08:11:12.572Z,5.37
2019-05-06T08:13:43.455Z,5.25
2019-05-06T08:16:13.106Z,5.33
2019-05-06T08:18:42.556Z,6.47
2019-05-06T08:21:18.805Z,5.45
2019-05-06T08:23:48.891Z,5.17
2019-05-06T08:26:18.062Z,5.37
2019-05-06T08:28:52.373Z,5.15
2019-05-06T08:31:22.516Z,5.33
2019-05-06T08:33:52.459Z,4.62
2019-05-06T08:36:23.299Z,3.83
2019-05-06T08:38:56.895Z,3.83
2019-05-06T08:41:26.575Z,3.60
2019-05-06T08:43:55.928Z,3.42
2019-05-06T08:46:24.535Z,3.10
2019-05-06T08:48:53.583Z,3.50
2019-05-06T08:51:42.419Z,3.10
2019-05-06T08:54:27.136Z,3.30
2019-05-06T08:56:56.007Z,3.00
2019-05-06T08:59:24.454Z,3.52
2019-05-06T09:01:54.632Z,3.22
2019-05-06T09:04:23.428Z,3.47
2019-05-06T09:06:53.364Z,3.90
2019-05-06T09:09:22.518Z,3.37
2019-05-06T09:11:53.353Z,3.65
2019-05-06T09:14:23.153Z,3.52
2019-05-06T09:16:53.983Z,3.40
2019-05-06T09:19:23.346Z,3.70
2019-05-06T09:21:53.347Z,4.42
2019-05-06T09:24:23.185Z,4.00
2019-05-06T09:26:56.155Z,3.85
2019-05-06T09:29:35.728Z,3.92
2019-05-06T09:32:06.233Z,3.72
2019-05-06T09:34:39.731Z,4.55
2019-05-06T09:37:14.131Z,3.98
2019-05-06T09:42:13.559Z,3.70
2019-05-06T09:44:43.659Z,3.87
2019-05-06T09:47:33.069Z,4.28
2019-05-06T09:50:02.762Z,3.80
2019-05-06T09:52:33.294Z,4.00
2019-05-06T09:55:03.643Z,4.05
2019-05-06T09:57:35.159Z,4.25
2019-05-06T10:00:05.428Z,4.03
2019-05-06T10:02:34.039Z,4.37
2019-05-06T10:05:03.598Z,4.30
2019-05-06T10:07:33.910Z,4.10
2019-05-06T10:10:02.527Z,3.40
2019-05-06T10:12:32.894Z,3.70
2019-05-06T10:15:03.212Z,3.47
2019-05-06T10:17:31.355Z,3.80
2019-05-06T10:20:02.587Z,3.92
2019-05-06T10:22:32.283Z,5.30
2019-05-06T10:25:03.359Z,4.37
2019-05-06T10:27:30.387Z,3.10
2019-05-06T10:30:06.567Z,4.40
2019-05-06T10:32:39.404Z,4.08
2019-05-06T10:35:09.632Z,3.92
2019-05-06T10:37:47.503Z,3.55
2019-05-06T10:40:32.778Z,2.98
2019-05-06T10:43:06.883Z,2.95
2019-05-06T10:45:35.684Z,3.15
2019-05-06T10:48:04.475Z,2.47
2019-05-06T10:50:34.999Z,3.00
2019-05-06T10:53:14.255Z,2.45
2019-05-06T10:55:46.095Z,2.95
2019-05-06T10:58:14.993Z,2.52
2019-05-06T11:00:43.459Z,2.50
2019-05-06T11:03:16.569Z,2.52
2019-05-06T11:05:46.336Z,2.52
2019-05-06T11:08:15.072Z,2.25
2019-05-06T11:10:45.290Z,2.75
2019-05-06T11:13:14.939Z,2.40
2019-05-06T11:15:43.656Z,2.52
2019-05-06T11:18:13.481Z,2.45
2019-05-06T11:21:03.480Z,2.60
2019-05-06T11:23:33.733Z,2.25
2019-05-06T11:26:03.147Z,2.25
2019-05-06T11:28:45.424Z,2.67
2019-05-06T11:31:16.767Z,2.22
2019-05-06T11:33:56.031Z,2.25
2019-05-06T11:36:28.903Z,2.10
2019-05-06T11:38:57.361Z,2.40
2019-05-06T11:41:27.200Z,2.17
2019-05-06T11:43:55.655Z,2.45
2019-05-06T11:46:24.472Z,2.55
2019-05-06T11:48:53.271Z,2.20
2019-05-06T11:51:23.708Z,2.50
2019-05-06T11:53:54.157Z,2.47
2019-05-06T11:56:23.230Z,2.30
2019-05-06T11:58:53.764Z,2.17
2019-05-06T12:01:26.856Z,2.55
2019-05-06T12:03:55.302Z,2.50
2019-05-06T12:06:24.136Z,2.40
2019-05-06T12:08:52.932Z,2.12
2019-05-06T12:11:23.651Z,2.08
2019-05-06T12:13:53.217Z,2.67
2019-05-06T12:16:26.027Z,2.58
2019-05-06T12:18:52.977Z,2.67
2019-05-06T12:21:23.183Z,2.77
2019-05-06T12:23:53.857Z,2.75
2019-05-06T12:26:22.453Z,2.70
2019-05-06T12:28:53.148Z,2.65
2019-05-06T12:31:23.392Z,2.42
2019-05-06T12:33:53.308Z,2.85
2019-05-06T12:36:22.595Z,2.67
2019-05-06T12:39:09.611Z,2.98
2019-05-06T12:41:43.080Z,2.47
2019-05-06T12:44:13.097Z,3.25
2019-05-06T12:47:00.144Z,2.52
2019-05-06T12:49:28.798Z,2.65
2019-05-06T12:51:58.559Z,2.20
2019-05-06T12:54:27.379Z,2.40
2019-05-06T12:56:57.115Z,2.35
2019-05-06T12:59:25.575Z,3.00
2019-05-06T13:01:54.477Z,2.65
2019-05-06T13:04:44.424Z,2.95
2019-05-06T13:06:53.568Z,2.47
2019-05-06T13:09:22.612Z,2.70
2019-05-06T13:11:52.400Z,2.15
2019-05-06T13:14:22.461Z,2.30
2019-05-06T13:16:53.235Z,2.02
2019-05-06T13:19:22.840Z,2.52
2019-05-06T13:21:52.860Z,2.62
2019-05-06T13:24:22.810Z,2.45
2019-05-06T13:26:52.806Z,2.30
2019-05-06T13:29:26.831Z,2.70
2019-05-06T13:31:56.833Z,2.80
2019-05-06T13:34:25.738Z,2.60
2019-05-06T13:36:54.388Z,2.77
2019-05-06T13:39:23.852Z,2.62
2019-05-06T13:41:52.918Z,3.02
2019-05-06T13:44:22.739Z,2.55
2019-05-06T13:46:53.525Z,2.83
2019-05-06T13:49:26.807Z,2.62
2019-05-06T13:52:00.843Z,2.30
2019-05-06T13:54:27.527Z,2.67
2019-05-06T13:56:56.076Z,2.60
2019-05-06T13:59:27.633Z,2.65
2019-05-06T14:01:56.662Z,3.10
2019-05-06T14:04:25.138Z,2.52
2019-05-06T14:06:53.668Z,2.87
2019-05-06T14:09:31.355Z,2.55
2019-05-06T14:11:52.655Z,2.92
2019-05-06T14:14:22.648Z,2.40
2019-05-06T14:16:53.336Z,2.67
2019-05-06T14:19:22.510Z,2.30
2019-05-06T14:21:52.328Z,2.70
2019-05-06T14:24:22.863Z,2.90
2019-05-06T14:27:02.643Z,2.67
2019-05-06T14:29:38.935Z,2.65
2019-05-06T14:32:07.812Z,2.35
2019-05-06T14:34:36.600Z,2.70
2019-05-06T14:37:05.124Z,2.37
2019-05-06T14:39:50.073Z,6.95
2019-05-06T14:42:12.729Z,2.80
2019-05-06T14:44:43.075Z,3.08
2019-05-06T14:47:19.248Z,2.50
2019-05-06T14:49:48.088Z,2.60
2019-05-06T14:52:16.548Z,3.27
2019-05-06T14:54:49.669Z,2.87
2019-05-06T14:57:19.684Z,2.70
2019-05-06T14:59:51.083Z,2.47
2019-05-06T15:02:25.439Z,2.20
2019-05-06T15:04:53.338Z,2.65
2019-05-06T15:07:22.192Z,3.70
2019-05-06T15:10:07.998Z,2.17
2019-05-06T15:12:22.862Z,2.17
2019-05-06T15:14:52.655Z,2.00
2019-05-06T15:17:23.126Z,2.75
2019-05-06T15:19:52.501Z,2.65
2019-05-06T15:22:22.628Z,2.50
2019-05-06T15:24:53.587Z,2.75
2019-05-06T15:27:23.381Z,2.17
2019-05-06T15:29:55.192Z,2.72
2019-05-06T15:32:32.083Z,2.25
2019-05-06T15:35:02.785Z,2.45
2019-05-06T15:37:35.724Z,2.25
2019-05-06T15:40:07.012Z,2.00
2019-05-06T15:42:35.463Z,2.72
2019-05-06T15:45:06.139Z,2.20
2019-05-06T15:47:34.940Z,2.42
2019-05-06T15:50:03.936Z,2.10
2019-05-06T15:52:32.856Z,2.45
2019-05-06T15:55:03.239Z,1.95
2019-05-06T15:57:32.797Z,2.37
2019-05-06T16:00:02.616Z,2.72
2019-05-06T16:02:31.280Z,2.70
2019-05-06T16:05:00.072Z,2.27
2019-05-06T16:07:31.839Z,2.37
2019-05-06T16:09:59.064Z,2.10
2019-05-06T16:12:27.895Z,2.00
2019-05-06T16:14:56.430Z,2.80
2019-05-06T16:17:24.888Z,2.47
2019-05-06T16:19:53.431Z,2.25
2019-05-06T16:22:22.548Z,2.90
2019-05-06T16:24:58.513Z,2.20
2019-05-06T16:27:27.287Z,2.62
2019-05-06T16:29:56.076Z,2.30
2019-05-06T16:32:24.875Z,3.52
2019-05-06T16:34:53.672Z,2.65
2019-05-06T16:37:22.451Z,2.70
2019-05-06T16:39:52.452Z,2.17
2019-05-06T16:42:22.447Z,3.27
2019-05-06T16:44:52.699Z,2.60
2019-05-06T16:47:37.793Z,2.70
2019-05-06T16:50:08.971Z,3.20
2019-05-06T16:52:37.488Z,2.40
2019-05-06T16:55:09.129Z,2.50
2019-05-06T16:57:37.647Z,2.95
2019-05-06T17:00:08.029Z,3.30
2019-05-06T17:02:41.968Z,3.30
2019-05-06T17:05:17.151Z,3.87
2019-05-06T17:07:46.779Z,3.73
2019-05-06T17:10:15.479Z,2.70
2019-05-06T17:12:44.251Z,3.10
2019-05-06T17:15:14.467Z,2.80
2019-05-06T17:17:46.665Z,2.85
2019-05-06T17:20:13.587Z,3.15
2019-05-06T17:22:42.439Z,2.35
2019-05-06T17:25:11.072Z,2.62
2019-05-06T17:27:40.602Z,2.30
2019-05-06T17:30:16.568Z,3.00
2019-05-06T17:32:47.063Z,3.62
2019-05-06T17:35:16.991Z,3.05
2019-05-06T17:37:47.162Z,3.05
2019-05-06T17:40:19.179Z,2.77
2019-05-06T17:42:49.136Z,3.12
2019-05-06T17:45:36.591Z,3.22
2019-05-06T17:48:12.834Z,3.22
2019-05-06T17:50:42.110Z,3.20
2019-05-06T17:53:12.296Z,2.95
2019-05-06T17:55:43.292Z,3.27
2019-05-06T17:58:12.984Z,2.83
2019-05-06T18:00:42.901Z,2.80
2019-05-06T18:03:11.879Z,2.85
2019-05-06T18:05:42.191Z,3.15
2019-05-06T18:08:12.629Z,2.70
2019-05-06T18:10:42.683Z,2.85
2019-05-06T18:13:12.635Z,2.90
2019-05-06T18:15:43.079Z,3.12
2019-05-06T18:18:13.055Z,3.02
2019-05-06T18:20:42.682Z,3.35
2019-05-06T18:23:12.882Z,3.67
2019-05-06T18:25:43.236Z,3.85
2019-05-06T18:28:12.333Z,3.37
2019-05-06T18:30:41.391Z,3.60
2019-05-06T18:33:09.864Z,4.62
2019-05-06T18:35:38.674Z,3.50
2019-05-06T18:38:07.463Z,4.05
2019-05-06T18:40:35.916Z,4.30
2019-05-06T18:43:04.844Z,3.70
2019-05-06T18:45:34.864Z,3.70
2019-05-06T18:48:03.670Z,4.45
2019-05-06T18:50:32.196Z,4.60
2019-05-06T18:53:02.415Z,4.03
2019-05-06T18:55:33.041Z,3.87
2019-05-06T18:58:02.295Z,4.50
2019-05-06T19:00:32.015Z,4.17
2019-05-06T19:03:02.678Z,4.33
2019-05-06T19:05:34.522Z,4.83
2019-05-06T19:08:05.073Z,4.33
2019-05-06T19:10:34.067Z,4.22
2019-05-06T19:13:02.603Z,4.03
2019-05-06T19:15:32.940Z,3.98
2019-05-06T19:18:02.283Z,3.75
2019-05-06T19:20:33.883Z,3.92
2019-05-06T19:23:02.320Z,4.15
2019-05-06T19:25:33.971Z,4.67
2019-05-06T19:28:02.239Z,5.20
2019-05-06T19:30:32.043Z,5.05
2019-05-06T19:33:02.929Z,5.30
2019-05-06T19:35:36.838Z,4.67
2019-05-06T19:38:05.268Z,4.70
2019-05-06T19:40:33.291Z,5.53
2019-05-06T19:43:03.021Z,5.72
2019-05-06T19:45:34.406Z,11.25
2019-05-06T19:48:02.913Z,4.70
2019-05-06T19:50:32.989Z,4.87
2019-05-06T19:53:02.053Z,4.70
2019-05-06T19:55:30.527Z,4.55
2019-05-06T19:57:59.051Z,5.15
2019-05-06T20:00:27.783Z,4.53
2019-05-06T20:02:56.500Z,4.37
2019-05-06T20:05:26.867Z,5.10
2019-05-06T20:07:59.719Z,5.30
2019-05-06T20:10:32.831Z,4.53
2019-05-06T20:13:05.409Z,4.83
2019-05-06T20:15:35.831Z,5.10
2019-05-06T20:18:06.449Z,5.45
2019-05-06T20:20:35.655Z,5.70
2019-05-06T20:23:04.651Z,4.72
2019-05-06T20:25:36.479Z,5.90
2019-05-06T20:28:04.278Z,6.50
2019-05-06T20:30:32.776Z,5.28
2019-05-06T20:33:01.571Z,5.70
2019-05-06T20:35:32.199Z,5.50
2019-05-06T20:38:02.756Z,5.37
2019-05-06T20:40:32.698Z,6.25
2019-05-06T20:43:15.746Z,5.35
2019-05-06T20:45:35.676Z,6.58
2019-05-06T20:48:04.422Z,6.00
2019-05-06T20:50:33.239Z,5.72
2019-05-06T20:53:01.692Z,6.17
2019-05-06T20:55:33.262Z,6.08
2019-05-06T20:58:02.690Z,5.58
2019-05-06T21:00:33.284Z,6.55
2019-05-06T21:03:01.106Z,6.55
2019-05-06T21:05:29.583Z,6.28
2019-05-06T21:07:58.113Z,6.20
2019-05-06T21:10:26.659Z,6.60
2019-05-06T21:12:55.103Z,6.92
2019-05-06T21:15:23.835Z,6.50
2019-05-06T21:17:52.550Z,6.95
2019-05-06T21:20:21.159Z,6.80
2019-05-06T21:22:49.875Z,7.83
2019-05-06T21:25:18.697Z,7.35
2019-05-06T21:27:47.223Z,7.97
2019-05-06T21:30:16.134Z,8.38
2019-05-06T21:32:44.873Z,7.92
2019-05-06T21:35:13.883Z,7.92
2019-05-06T21:37:42.768Z,7.62
2019-05-06T21:40:12.376Z,7.67
2019-05-06T21:42:43.175Z,7.75
2019-05-06T21:45:12.554Z,7.40
2019-05-06T21:47:44.399Z,7.12
2019-05-06T21:50:12.138Z,8.30
2019-05-06T21:52:42.840Z,8.70
2019-05-06T21:55:13.105Z,7.95
2019-05-06T21:57:42.417Z,9.23
2019-05-06T22:00:16.818Z,8.28
2019-05-06T22:02:43.561Z,7.80
2019-05-06T22:05:13.775Z,8.73
2019-05-06T22:07:43.416Z,7.70
2019-05-06T22:10:12.470Z,7.85
2019-05-06T22:12:43.163Z,9.50
2019-05-06T22:15:11.884Z,8.48
2019-05-06T22:17:42.843Z,8.93
2019-05-06T22:20:11.519Z,8.73
2019-05-06T22:22:42.602Z,8.70
2019-05-06T22:25:12.950Z,9.60
2019-05-06T22:27:44.256Z,9.15
2019-05-06T22:30:12.284Z,10.78
2019-05-06T22:32:46.815Z,9.08
2019-05-06T22:35:17.931Z,8.75
2019-05-06T22:37:46.404Z,10.10
2019-05-06T22:40:15.498Z,10.00
2019-05-06T22:42:44.228Z,9.85
2019-05-06T22:45:13.535Z,10.25
2019-05-06T22:47:42.324Z,9.28
2019-05-06T22:50:13.089Z,10.30
2019-05-06T22:52:42.156Z,9.88
2019-05-06T22:55:12.967Z,10.53
2019-05-06T22:57:42.367Z,9.83
2019-05-06T23:00:15.204Z,10.90
2019-05-06T23:02:48.399Z,11.33
2019-05-06T23:05:17.940Z,10.88
2019-05-06T23:07:46.417Z,11.50
2019-05-06T23:10:14.932Z,10.53
2019-05-06T23:12:43.528Z,8.55
2019-05-06T23:15:12.480Z,8.80
2019-05-06T23:17:42.089Z,11.33
2019-05-06T23:20:11.379Z,9.60
2019-05-06T23:22:42.185Z,11.28
2019-05-06T23:25:12.377Z,12.45
2019-05-06T23:27:43.804Z,13.48
2019-05-06T23:30:12.783Z,12.13
2019-05-06T23:32:42.284Z,10.63
2019-05-06T23:35:13.127Z,10.05
2019-05-06T23:38:17.769Z,11.50
2019-05-06T23:41:22.983Z,11.80
2019-05-06T23:44:35.862Z,12.47
2019-05-06T23:47:35.248Z,9.83
2019-05-06T23:53:27.971Z,13.20
2019-05-06T23:56:34.686Z,13.60
2019-05-06T23:59:03.370Z,15.15
